sensor_id;sensor_type;location;lat;lon;timestamp;P1;durP1;ratioP1;P2;durP2;ratioP2
41897;SDS011;27576;53.366;-1.498;2023-11-21T00:00:53;1.23;;;0.95;;
41897;SDS011;27576;53.366;-1.498;2023-11-21T00:03:19;1.15;;;1.02;;
41897;SDS011;27576;53.366;-1.498;2023-11-21T00:05:45;1.95;;;1.08;;
41897;SDS011;27576;53.366;-1.498;2023-11-21T00:08:10;1.27;;;1.00;;
41897;SDS011;27576;53.366;-1.498;2023-11-21T00:10:35;1.10;;;1.00;;
41897;SDS011;27576;53.366;-1.498;2023-11-21T00:13:03;1.80;;;1.20;;
41897;SDS011;27576;53.366;-1.498;2023-11-21T00:15:29;2.72;;;1.10;;
41897;SDS011;27576;53.366;-1.498;2023-11-21T00:17:54;1.50;;;1.00;;
41897;SDS011;27576;53.366;-1.498;2023-11-21T00:20:22;4.78;;;1.13;;
41897;SDS011;27576;53.366;-1.498;2023-11-21T00:22:48;1.92;;;1.08;;
41897;SDS011;27576;53.366;-1.498;2023-11-21T00:25:13;1.60;;;1.10;;
41897;SDS011;27576;53.366;-1.498;2023-11-21T00:27:40;2.75;;;0.90;;
41897;SDS011;27576;53.366;-1.498;2023-11-21T00:30:06;1.35;;;1.05;;
41897;SDS011;27576;53.366;-1.498;2023-11-21T00:32:33;3.90;;;0.82;;
41897;SDS011;27576;53.366;-1.498;2023-11-21T00:35:00;2.67;;;0.90;;
41897;SDS011;27576;53.366;-1.498;2023-11-21T00:37:26;2.53;;;1.02;;
41897;SDS011;27576;53.366;-1.498;2023-11-21T00:39:51;4.88;;;1.05;;
41897;SDS011;27576;53.366;-1.498;2023-11-21T00:42:16;2.05;;;0.98;;
41897;SDS011;27576;53.366;-1.498;2023-11-21T00:44:42;3.33;;;1.13;;
41897;SDS011;27576;53.366;-1.498;2023-11-21T00:47:07;2.05;;;0.70;;
41897;SDS011;27576;53.366;-1.498;2023-11-21T00:49:33;2.67;;;1.10;;
41897;SDS011;27576;53.366;-1.498;2023-11-21T00:51:58;0.70;;;0.70;;
41897;SDS011;27576;53.366;-1.498;2023-11-21T00:54:23;1.92;;;1.10;;
41897;SDS011;27576;53.366;-1.498;2023-11-21T00:56:49;4.22;;;1.10;;
41897;SDS011;27576;53.366;-1.498;2023-11-21T00:59:14;2.05;;;0.90;;
41897;SDS011;27576;53.366;-1.498;2023-11-21T01:01:40;3.72;;;0.90;;
41897;SDS011;27576;53.366;-1.498;2023-11-21T01:04:05;1.90;;;0.88;;
41897;SDS011;27576;53.366;-1.498;2023-11-21T01:06:32;2.80;;;0.77;;
41897;SDS011;27576;53.366;-1.498;2023-11-21T01:08:57;4.05;;;0.88;;
41897;SDS011;27576;53.366;-1.498;2023-11-21T01:11:23;1.42;;;0.90;;
41897;SDS011;27576;53.366;-1.498;2023-11-21T01:13:48;2.17;;;0.90;;
41897;SDS011;27576;53.366;-1.498;2023-11-21T01:16:13;2.75;;;0.95;;
41897;SDS011;27576;53.366;-1.498;2023-11-21T01:18:39;1.42;;;0.90;;
41897;SDS011;27576;53.366;-1.498;2023-11-21T01:21:04;2.90;;;0.90;;
41897;SDS011;27576;53.366;-1.498;2023-11-21T01:23:30;1.67;;;1.00;;
41897;SDS011;27576;53.366;-1.498;2023-11-21T01:25:56;2.28;;;0.90;;
41897;SDS011;27576;53.366;-1.498;2023-11-21T01:28:22;3.90;;;1.10;;
41897;SDS011;27576;53.366;-1.498;2023-11-21T01:30:47;4.85;;;1.02;;
41897;SDS011;27576;53.366;-1.498;2023-11-21T01:33:13;4.38;;;1.45;;
41897;SDS011;27576;53.366;-1.498;2023-11-21T01:35:40;4.95;;;1.42;;
41897;SDS011;27576;53.366;-1.498;2023-11-21T01:38:11;1.95;;;1.10;;
41897;SDS011;27576;53.366;-1.498;2023-11-21T01:40:36;2.40;;;1.35;;
41897;SDS011;27576;53.366;-1.498;2023-11-21T01:43:02;4.15;;;0.95;;
41897;SDS011;27576;53.366;-1.498;2023-11-21T01:45:30;4.65;;;1.30;;
41897;SDS011;27576;53.366;-1.498;2023-11-21T01:47:58;4.05;;;1.35;;
41897;SDS011;27576;53.366;-1.498;2023-11-21T01:50:25;2.30;;;0.93;;
41897;SDS011;27576;53.366;-1.498;2023-11-21T01:52:51;2.67;;;1.00;;
41897;SDS011;27576;53.366;-1.498;2023-11-21T01:55:17;3.95;;;0.82;;
41897;SDS011;27576;53.366;-1.498;2023-11-21T01:57:44;3.85;;;1.05;;
41897;SDS011;27576;53.366;-1.498;2023-11-21T02:00:11;2.65;;;0.82;;
41897;SDS011;27576;53.366;-1.498;2023-11-21T02:02:47;2.40;;;1.00;;
41897;SDS011;27576;53.366;-1.498;2023-11-21T02:05:16;2.22;;;0.90;;
41897;SDS011;27576;53.366;-1.498;2023-11-21T02:07:43;2.58;;;1.10;;
41897;SDS011;27576;53.366;-1.498;2023-11-21T02:10:09;4.40;;;0.93;;
41897;SDS011;27576;53.366;-1.498;2023-11-21T02:12:39;2.75;;;1.42;;
41897;SDS011;27576;53.366;-1.498;2023-11-21T02:15:05;5.45;;;1.05;;
41897;SDS011;27576;53.366;-1.498;2023-11-21T02:17:39;1.98;;;1.00;;
41897;SDS011;27576;53.366;-1.498;2023-11-21T02:20:12;1.35;;;0.82;;
41897;SDS011;27576;53.366;-1.498;2023-11-21T02:22:42;2.35;;;0.82;;
41897;SDS011;27576;53.366;-1.498;2023-11-21T02:25:09;1.30;;;0.90;;
41897;SDS011;27576;53.366;-1.498;2023-11-21T02:27:34;3.45;;;0.90;;
41897;SDS011;27576;53.366;-1.498;2023-11-21T02:30:00;2.58;;;0.98;;
41897;SDS011;27576;53.366;-1.498;2023-11-21T02:32:26;2.17;;;0.77;;
41897;SDS011;27576;53.366;-1.498;2023-11-21T02:34:52;3.08;;;0.80;;
41897;SDS011;27576;53.366;-1.498;2023-11-21T02:37:17;1.50;;;0.75;;
41897;SDS011;27576;53.366;-1.498;2023-11-21T02:39:43;1.45;;;0.77;;
41897;SDS011;27576;53.366;-1.498;2023-11-21T02:42:08;1.98;;;0.70;;
41897;SDS011;27576;53.366;-1.498;2023-11-21T02:44:33;2.03;;;0.90;;
41897;SDS011;27576;53.366;-1.498;2023-11-21T02:46:59;1.63;;;0.80;;
41897;SDS011;27576;53.366;-1.498;2023-11-21T02:49:25;2.70;;;1.02;;
41897;SDS011;27576;53.366;-1.498;2023-11-21T02:51:53;1.05;;;0.75;;
41897;SDS011;27576;53.366;-1.498;2023-11-21T02:54:19;2.58;;;0.70;;
41897;SDS011;27576;53.366;-1.498;2023-11-21T02:56:47;1.35;;;0.77;;
41897;SDS011;27576;53.366;-1.498;2023-11-21T02:59:12;1.98;;;0.88;;
41897;SDS011;27576;53.366;-1.498;2023-11-21T03:01:38;2.15;;;0.90;;
41897;SDS011;27576;53.366;-1.498;2023-11-21T03:04:03;1.25;;;0.95;;
41897;SDS011;27576;53.366;-1.498;2023-11-21T03:06:28;2.17;;;1.00;;
41897;SDS011;27576;53.366;-1.498;2023-11-21T03:08:54;1.48;;;0.73;;
41897;SDS011;27576;53.366;-1.498;2023-11-21T03:11:19;3.05;;;0.80;;
41897;SDS011;27576;53.366;-1.498;2023-11-21T03:13:45;4.25;;;0.85;;
41897;SDS011;27576;53.366;-1.498;2023-11-21T03:16:10;1.38;;;0.93;;
41897;SDS011;27576;53.366;-1.498;2023-11-21T03:18:39;4.20;;;0.88;;
41897;SDS011;27576;53.366;-1.498;2023-11-21T03:21:05;1.95;;;0.85;;
41897;SDS011;27576;53.366;-1.498;2023-11-21T03:23:33;1.50;;;0.80;;
41897;SDS011;27576;53.366;-1.498;2023-11-21T03:25:59;2.30;;;0.88;;
41897;SDS011;27576;53.366;-1.498;2023-11-21T03:28:25;0.88;;;0.70;;
41897;SDS011;27576;53.366;-1.498;2023-11-21T03:30:51;0.70;;;0.70;;
41897;SDS011;27576;53.366;-1.498;2023-11-21T03:33:17;2.40;;;0.70;;
41897;SDS011;27576;53.366;-1.498;2023-11-21T03:35:42;1.20;;;0.60;;
41897;SDS011;27576;53.366;-1.498;2023-11-21T03:38:09;1.65;;;0.55;;
41897;SDS011;27576;53.366;-1.498;2023-11-21T03:40:35;0.60;;;0.60;;
41897;SDS011;27576;53.366;-1.498;2023-11-21T03:43:00;1.38;;;0.75;;
41897;SDS011;27576;53.366;-1.498;2023-11-21T03:45:25;0.95;;;0.70;;
41897;SDS011;27576;53.366;-1.498;2023-11-21T03:47:51;0.60;;;0.60;;
41897;SDS011;27576;53.366;-1.498;2023-11-21T03:50:16;1.60;;;0.70;;
41897;SDS011;27576;53.366;-1.498;2023-11-21T03:52:41;0.65;;;0.55;;
41897;SDS011;27576;53.366;-1.498;2023-11-21T03:55:07;0.55;;;0.55;;
41897;SDS011;27576;53.366;-1.498;2023-11-21T03:57:33;0.77;;;0.50;;
41897;SDS011;27576;53.366;-1.498;2023-11-21T03:59:58;2.08;;;0.90;;
41897;SDS011;27576;53.366;-1.498;2023-11-21T04:02:24;1.15;;;0.70;;
41897;SDS011;27576;53.366;-1.498;2023-11-21T04:04:53;0.47;;;0.47;;
41897;SDS011;27576;53.366;-1.498;2023-11-21T04:07:19;1.17;;;0.60;;
41897;SDS011;27576;53.366;-1.498;2023-11-21T04:09:44;1.17;;;0.70;;
41897;SDS011;27576;53.366;-1.498;2023-11-21T04:12:09;1.17;;;0.70;;
41897;SDS011;27576;53.366;-1.498;2023-11-21T04:14:35;3.10;;;0.70;;
41897;SDS011;27576;53.366;-1.498;2023-11-21T04:17:00;1.58;;;0.70;;
41897;SDS011;27576;53.366;-1.498;2023-11-21T04:19:26;0.40;;;0.40;;
41897;SDS011;27576;53.366;-1.498;2023-11-21T04:21:51;0.40;;;0.40;;
41897;SDS011;27576;53.366;-1.498;2023-11-21T04:24:17;0.60;;;0.47;;
41897;SDS011;27576;53.366;-1.498;2023-11-21T04:26:45;3.92;;;0.73;;
41897;SDS011;27576;53.366;-1.498;2023-11-21T04:29:11;0.50;;;0.50;;
41897;SDS011;27576;53.366;-1.498;2023-11-21T04:31:37;0.68;;;0.60;;
41897;SDS011;27576;53.366;-1.498;2023-11-21T04:34:02;0.70;;;0.50;;
41897;SDS011;27576;53.366;-1.498;2023-11-21T04:36:29;1.38;;;0.90;;
41897;SDS011;27576;53.366;-1.498;2023-11-21T04:38:55;0.50;;;0.50;;
41897;SDS011;27576;53.366;-1.498;2023-11-21T04:41:21;2.78;;;0.50;;
41897;SDS011;27576;53.366;-1.498;2023-11-21T04:43:46;3.05;;;0.55;;
41897;SDS011;27576;53.366;-1.498;2023-11-21T04:46:12;1.40;;;0.70;;
41897;SDS011;27576;53.366;-1.498;2023-11-21T04:48:37;0.75;;;0.50;;
41897;SDS011;27576;53.366;-1.498;2023-11-21T04:51:03;0.50;;;0.50;;
41897;SDS011;27576;53.366;-1.498;2023-11-21T04:53:29;0.50;;;0.50;;
41897;SDS011;27576;53.366;-1.498;2023-11-21T04:55:55;1.13;;;0.60;;
41897;SDS011;27576;53.366;-1.498;2023-11-21T04:58:20;0.85;;;0.60;;
41897;SDS011;27576;53.366;-1.498;2023-11-21T05:00:46;0.88;;;0.60;;
41897;SDS011;27576;53.366;-1.498;2023-11-21T05:03:11;0.80;;;0.55;;
41897;SDS011;27576;53.366;-1.498;2023-11-21T05:05:37;1.42;;;0.63;;
41897;SDS011;27576;53.366;-1.498;2023-11-21T05:08:02;2.42;;;0.73;;
41897;SDS011;27576;53.366;-1.498;2023-11-21T05:10:28;0.80;;;0.80;;
41897;SDS011;27576;53.366;-1.498;2023-11-21T05:12:54;0.70;;;0.70;;
41897;SDS011;27576;53.366;-1.498;2023-11-21T05:15:20;0.68;;;0.60;;
41897;SDS011;27576;53.366;-1.498;2023-11-21T05:17:46;0.95;;;0.70;;
41897;SDS011;27576;53.366;-1.498;2023-11-21T05:20:14;1.73;;;0.93;;
41897;SDS011;27576;53.366;-1.498;2023-11-21T05:22:42;1.58;;;0.80;;
41897;SDS011;27576;53.366;-1.498;2023-11-21T05:25:08;1.27;;;0.73;;
41897;SDS011;27576;53.366;-1.498;2023-11-21T05:27:35;1.35;;;0.88;;
41897;SDS011;27576;53.366;-1.498;2023-11-21T05:30:03;0.80;;;0.80;;
41897;SDS011;27576;53.366;-1.498;2023-11-21T05:32:37;2.00;;;1.15;;
41897;SDS011;27576;53.366;-1.498;2023-11-21T05:35:03;3.00;;;1.08;;
41897;SDS011;27576;53.366;-1.498;2023-11-21T05:37:29;1.50;;;0.82;;
41897;SDS011;27576;53.366;-1.498;2023-11-21T05:39:54;1.25;;;0.82;;
41897;SDS011;27576;53.366;-1.498;2023-11-21T05:42:21;2.80;;;1.30;;
41897;SDS011;27576;53.366;-1.498;2023-11-21T05:44:48;2.00;;;1.25;;
41897;SDS011;27576;53.366;-1.498;2023-11-21T05:47:14;2.20;;;0.98;;
41897;SDS011;27576;53.366;-1.498;2023-11-21T05:49:39;1.25;;;1.08;;
41897;SDS011;27576;53.366;-1.498;2023-11-21T05:52:04;3.53;;;1.33;;
41897;SDS011;27576;53.366;-1.498;2023-11-21T05:54:30;2.08;;;1.10;;
41897;SDS011;27576;53.366;-1.498;2023-11-21T05:56:56;4.05;;;1.15;;
41897;SDS011;27576;53.366;-1.498;2023-11-21T05:59:21;3.05;;;0.88;;
41897;SDS011;27576;53.366;-1.498;2023-11-21T06:01:47;3.05;;;1.15;;
41897;SDS011;27576;53.366;-1.498;2023-11-21T06:04:13;1.48;;;1.17;;
41897;SDS011;27576;53.366;-1.498;2023-11-21T06:06:38;2.17;;;1.45;;
41897;SDS011;27576;53.366;-1.498;2023-11-21T06:09:04;1.60;;;1.17;;
41897;SDS011;27576;53.366;-1.498;2023-11-21T06:11:31;3.70;;;1.33;;
41897;SDS011;27576;53.366;-1.498;2023-11-21T06:13:56;2.70;;;1.20;;
41897;SDS011;27576;53.366;-1.498;2023-11-21T06:16:22;1.20;;;1.02;;
41897;SDS011;27576;53.366;-1.498;2023-11-21T06:18:47;1.33;;;1.23;;
41897;SDS011;27576;53.366;-1.498;2023-11-21T06:21:13;1.38;;;1.10;;
41897;SDS011;27576;53.366;-1.498;2023-11-21T06:23:38;1.48;;;1.13;;
41897;SDS011;27576;53.366;-1.498;2023-11-21T06:26:04;2.30;;;1.10;;
41897;SDS011;27576;53.366;-1.498;2023-11-21T06:28:30;2.67;;;1.30;;
41897;SDS011;27576;53.366;-1.498;2023-11-21T06:30:56;2.83;;;1.40;;
41897;SDS011;27576;53.366;-1.498;2023-11-21T06:33:23;5.75;;;1.35;;
41897;SDS011;27576;53.366;-1.498;2023-11-21T06:35:48;3.47;;;1.40;;
41897;SDS011;27576;53.366;-1.498;2023-11-21T06:38:14;1.55;;;1.20;;
41897;SDS011;27576;53.366;-1.498;2023-11-21T06:40:40;1.85;;;1.00;;
41897;SDS011;27576;53.366;-1.498;2023-11-21T06:43:06;2.70;;;1.42;;
41897;SDS011;27576;53.366;-1.498;2023-11-21T06:45:32;5.22;;;1.52;;
41897;SDS011;27576;53.366;-1.498;2023-11-21T06:47:59;1.92;;;1.30;;
41897;SDS011;27576;53.366;-1.498;2023-11-21T06:50:24;3.72;;;1.70;;
41897;SDS011;27576;53.366;-1.498;2023-11-21T06:52:49;4.15;;;1.38;;
41897;SDS011;27576;53.366;-1.498;2023-11-21T06:55:15;3.22;;;1.40;;
41897;SDS011;27576;53.366;-1.498;2023-11-21T06:57:41;6.03;;;1.63;;
41897;SDS011;27576;53.366;-1.498;2023-11-21T07:00:06;3.95;;;1.75;;
41897;SDS011;27576;53.366;-1.498;2023-11-21T07:02:34;3.42;;;1.60;;
41897;SDS011;27576;53.366;-1.498;2023-11-21T07:04:59;2.70;;;1.50;;
41897;SDS011;27576;53.366;-1.498;2023-11-21T07:07:25;3.72;;;1.55;;
41897;SDS011;27576;53.366;-1.498;2023-11-21T07:09:50;4.30;;;1.92;;
41897;SDS011;27576;53.366;-1.498;2023-11-21T07:12:16;4.45;;;2.05;;
41897;SDS011;27576;53.366;-1.498;2023-11-21T07:14:42;4.00;;;1.50;;
41897;SDS011;27576;53.366;-1.498;2023-11-21T07:17:09;3.88;;;2.00;;
41897;SDS011;27576;53.366;-1.498;2023-11-21T07:19:38;6.97;;;2.08;;
41897;SDS011;27576;53.366;-1.498;2023-11-21T07:22:03;5.18;;;1.70;;
41897;SDS011;27576;53.366;-1.498;2023-11-21T07:24:30;5.10;;;1.65;;
41897;SDS011;27576;53.366;-1.498;2023-11-21T07:26:57;3.30;;;1.95;;
41897;SDS011;27576;53.366;-1.498;2023-11-21T07:29:25;5.63;;;2.15;;
41897;SDS011;27576;53.366;-1.498;2023-11-21T07:31:51;5.13;;;1.52;;
41897;SDS011;27576;53.366;-1.498;2023-11-21T07:34:17;6.70;;;1.73;;
41897;SDS011;27576;53.366;-1.498;2023-11-21T07:36:43;4.18;;;1.80;;
41897;SDS011;27576;53.366;-1.498;2023-11-21T07:39:08;4.75;;;1.90;;
41897;SDS011;27576;53.366;-1.498;2023-11-21T07:41:33;9.88;;;2.10;;
41897;SDS011;27576;53.366;-1.498;2023-11-21T07:43:59;7.28;;;2.20;;
41897;SDS011;27576;53.366;-1.498;2023-11-21T07:46:25;5.32;;;1.92;;
41897;SDS011;27576;53.366;-1.498;2023-11-21T07:48:51;6.55;;;2.38;;
41897;SDS011;27576;53.366;-1.498;2023-11-21T07:51:17;9.60;;;2.17;;
41897;SDS011;27576;53.366;-1.498;2023-11-21T07:53:42;6.50;;;2.67;;
41897;SDS011;27576;53.366;-1.498;2023-11-21T07:56:08;5.20;;;1.80;;
41897;SDS011;27576;53.366;-1.498;2023-11-21T07:58:34;5.47;;;2.22;;
41897;SDS011;27576;53.366;-1.498;2023-11-21T08:01:01;7.38;;;3.08;;
41897;SDS011;27576;53.366;-1.498;2023-11-21T08:03:29;4.88;;;2.60;;
41897;SDS011;27576;53.366;-1.498;2023-11-21T08:05:56;7.05;;;2.33;;
41897;SDS011;27576;53.366;-1.498;2023-11-21T08:08:22;9.85;;;2.40;;
41897;SDS011;27576;53.366;-1.498;2023-11-21T08:10:48;5.25;;;2.00;;
41897;SDS011;27576;53.366;-1.498;2023-11-21T08:13:21;7.65;;;2.70;;
41897;SDS011;27576;53.366;-1.498;2023-11-21T08:15:47;9.88;;;2.63;;
41897;SDS011;27576;53.366;-1.498;2023-11-21T08:18:12;7.68;;;3.10;;
41897;SDS011;27576;53.366;-1.498;2023-11-21T08:20:39;7.55;;;2.65;;
41897;SDS011;27576;53.366;-1.498;2023-11-21T08:23:05;11.40;;;2.90;;
41897;SDS011;27576;53.366;-1.498;2023-11-21T08:25:31;13.20;;;3.30;;
41897;SDS011;27576;53.366;-1.498;2023-11-21T08:27:57;8.90;;;3.38;;
41897;SDS011;27576;53.366;-1.498;2023-11-21T08:30:22;11.35;;;3.55;;
41897;SDS011;27576;53.366;-1.498;2023-11-21T08:32:49;11.07;;;2.80;;
41897;SDS011;27576;53.366;-1.498;2023-11-21T08:35:14;13.63;;;3.05;;
41897;SDS011;27576;53.366;-1.498;2023-11-21T08:37:40;6.45;;;2.30;;
41897;SDS011;27576;53.366;-1.498;2023-11-21T08:40:06;6.88;;;3.03;;
41897;SDS011;27576;53.366;-1.498;2023-11-21T08:42:34;6.68;;;2.40;;
41897;SDS011;27576;53.366;-1.498;2023-11-21T08:45:00;10.45;;;2.83;;
41897;SDS011;27576;53.366;-1.498;2023-11-21T08:47:26;8.23;;;2.75;;
41897;SDS011;27576;53.366;-1.498;2023-11-21T08:49:52;9.73;;;2.65;;
41897;SDS011;27576;53.366;-1.498;2023-11-21T08:52:20;9.63;;;2.72;;
41897;SDS011;27576;53.366;-1.498;2023-11-21T08:54:47;14.23;;;3.35;;
41897;SDS011;27576;53.366;-1.498;2023-11-21T08:57:21;12.13;;;3.08;;
41897;SDS011;27576;53.366;-1.498;2023-11-21T08:59:47;12.50;;;3.55;;
41897;SDS011;27576;53.366;-1.498;2023-11-21T09:02:12;10.95;;;2.97;;
41897;SDS011;27576;53.366;-1.498;2023-11-21T09:04:37;11.80;;;2.80;;
41897;SDS011;27576;53.366;-1.498;2023-11-21T09:07:03;13.32;;;3.42;;
41897;SDS011;27576;53.366;-1.498;2023-11-21T09:09:28;10.68;;;2.80;;
41897;SDS011;27576;53.366;-1.498;2023-11-21T09:11:55;11.07;;;3.42;;
41897;SDS011;27576;53.366;-1.498;2023-11-21T09:14:20;9.65;;;2.97;;
41897;SDS011;27576;53.366;-1.498;2023-11-21T09:16:45;7.85;;;2.53;;
41897;SDS011;27576;53.366;-1.498;2023-11-21T09:19:11;13.93;;;3.33;;
41897;SDS011;27576;53.366;-1.498;2023-11-21T09:21:39;10.73;;;2.75;;
41897;SDS011;27576;53.366;-1.498;2023-11-21T09:24:04;9.00;;;3.05;;
41897;SDS011;27576;53.366;-1.498;2023-11-21T09:26:30;13.20;;;3.10;;
41897;SDS011;27576;53.366;-1.498;2023-11-21T09:28:55;12.82;;;3.13;;
41897;SDS011;27576;53.366;-1.498;2023-11-21T09:31:21;5.53;;;2.33;;
41897;SDS011;27576;53.366;-1.498;2023-11-21T09:33:47;8.68;;;2.80;;
41897;SDS011;27576;53.366;-1.498;2023-11-21T09:36:13;14.98;;;2.80;;
41897;SDS011;27576;53.366;-1.498;2023-11-21T09:38:39;9.25;;;2.78;;
41897;SDS011;27576;53.366;-1.498;2023-11-21T09:41:06;6.15;;;2.63;;
41897;SDS011;27576;53.366;-1.498;2023-11-21T09:43:42;8.85;;;3.15;;
41897;SDS011;27576;53.366;-1.498;2023-11-21T09:46:09;12.25;;;2.92;;
41897;SDS011;27576;53.366;-1.498;2023-11-21T09:48:41;8.80;;;2.22;;
41897;SDS011;27576;53.366;-1.498;2023-11-21T09:51:08;11.02;;;2.80;;
41897;SDS011;27576;53.366;-1.498;2023-11-21T09:53:35;10.65;;;2.20;;
41897;SDS011;27576;53.366;-1.498;2023-11-21T09:56:02;11.68;;;2.80;;
41897;SDS011;27576;53.366;-1.498;2023-11-21T09:58:29;9.77;;;2.50;;
41897;SDS011;27576;53.366;-1.498;2023-11-21T10:00:54;9.73;;;2.78;;
41897;SDS011;27576;53.366;-1.498;2023-11-21T10:03:22;12.45;;;2.42;;
41897;SDS011;27576;53.366;-1.498;2023-11-21T10:05:48;8.95;;;2.55;;
41897;SDS011;27576;53.366;-1.498;2023-11-21T10:08:15;8.85;;;2.67;;
41897;SDS011;27576;53.366;-1.498;2023-11-21T10:10:44;7.55;;;2.60;;
41897;SDS011;27576;53.366;-1.498;2023-11-21T10:13:11;6.40;;;2.15;;
41897;SDS011;27576;53.366;-1.498;2023-11-21T10:15:38;8.27;;;2.40;;
41897;SDS011;27576;53.366;-1.498;2023-11-21T10:18:04;8.27;;;2.45;;
41897;SDS011;27576;53.366;-1.498;2023-11-21T10:20:31;10.18;;;2.53;;
41897;SDS011;27576;53.366;-1.498;2023-11-21T10:22:58;14.50;;;2.88;;
41897;SDS011;27576;53.366;-1.498;2023-11-21T10:25:24;6.95;;;1.95;;
41897;SDS011;27576;53.366;-1.498;2023-11-21T10:27:50;12.38;;;2.38;;
41897;SDS011;27576;53.366;-1.498;2023-11-21T10:30:22;9.20;;;2.13;;
41897;SDS011;27576;53.366;-1.498;2023-11-21T10:32:54;11.57;;;2.70;;
41897;SDS011;27576;53.366;-1.498;2023-11-21T10:35:24;8.35;;;2.15;;
41897;SDS011;27576;53.366;-1.498;2023-11-21T10:37:54;6.97;;;2.35;;
41897;SDS011;27576;53.366;-1.498;2023-11-21T10:40:27;6.65;;;2.33;;
41897;SDS011;27576;53.366;-1.498;2023-11-21T10:42:54;9.20;;;2.67;;
41897;SDS011;27576;53.366;-1.498;2023-11-21T10:45:19;8.80;;;2.50;;
41897;SDS011;27576;53.366;-1.498;2023-11-21T10:47:44;7.70;;;2.65;;
41897;SDS011;27576;53.366;-1.498;2023-11-21T10:50:10;8.18;;;2.45;;
41897;SDS011;27576;53.366;-1.498;2023-11-21T10:52:42;13.25;;;3.65;;
41897;SDS011;27576;53.366;-1.498;2023-11-21T10:55:18;9.02;;;2.67;;
41897;SDS011;27576;53.366;-1.498;2023-11-21T10:57:48;9.85;;;3.22;;
41897;SDS011;27576;53.366;-1.498;2023-11-21T11:00:14;8.88;;;2.88;;
41897;SDS011;27576;53.366;-1.498;2023-11-21T11:02:41;5.72;;;2.85;;
41897;SDS011;27576;53.366;-1.498;2023-11-21T11:05:07;9.27;;;3.20;;
41897;SDS011;27576;53.366;-1.498;2023-11-21T11:07:36;10.80;;;3.25;;
41897;SDS011;27576;53.366;-1.498;2023-11-21T11:10:05;6.78;;;2.75;;
41897;SDS011;27576;53.366;-1.498;2023-11-21T11:12:33;10.35;;;2.60;;
41897;SDS011;27576;53.366;-1.498;2023-11-21T11:15:00;9.68;;;2.80;;
41897;SDS011;27576;53.366;-1.498;2023-11-21T11:17:28;6.28;;;2.15;;
41897;SDS011;27576;53.366;-1.498;2023-11-21T11:19:53;5.43;;;1.95;;
41897;SDS011;27576;53.366;-1.498;2023-11-21T11:22:37;9.13;;;2.78;;
41897;SDS011;27576;53.366;-1.498;2023-11-21T11:33:20;9.32;;;2.58;;
41897;SDS011;27576;53.366;-1.498;2023-11-21T11:38:50;7.35;;;2.35;;
41897;SDS011;27576;53.366;-1.498;2023-11-21T11:41:25;7.38;;;2.13;;
41897;SDS011;27576;53.366;-1.498;2023-11-21T11:43:53;4.82;;;1.92;;
41897;SDS011;27576;53.366;-1.498;2023-11-21T11:46:19;9.95;;;2.35;;
41897;SDS011;27576;53.366;-1.498;2023-11-21T11:48:46;6.82;;;2.20;;
41897;SDS011;27576;53.366;-1.498;2023-11-21T11:51:14;8.20;;;2.60;;
41897;SDS011;27576;53.366;-1.498;2023-11-21T11:53:42;9.20;;;2.47;;
41897;SDS011;27576;53.366;-1.498;2023-11-21T11:56:19;6.82;;;2.03;;
41897;SDS011;27576;53.366;-1.498;2023-11-21T11:58:44;9.23;;;2.10;;
41897;SDS011;27576;53.366;-1.498;2023-11-21T12:01:11;4.90;;;1.90;;
41897;SDS011;27576;53.366;-1.498;2023-11-21T12:03:37;6.32;;;2.28;;
41897;SDS011;27576;53.366;-1.498;2023-11-21T12:06:02;8.63;;;2.60;;
41897;SDS011;27576;53.366;-1.498;2023-11-21T12:08:28;7.68;;;2.45;;
41897;SDS011;27576;53.366;-1.498;2023-11-21T12:10:56;8.93;;;2.50;;
41897;SDS011;27576;53.366;-1.498;2023-11-21T12:13:22;5.25;;;1.92;;
41897;SDS011;27576;53.366;-1.498;2023-11-21T12:15:48;5.65;;;1.88;;
41897;SDS011;27576;53.366;-1.498;2023-11-21T12:18:14;9.45;;;2.40;;
41897;SDS011;27576;53.366;-1.498;2023-11-21T12:20:39;8.82;;;2.50;;
41897;SDS011;27576;53.366;-1.498;2023-11-21T12:23:06;4.93;;;2.10;;
41897;SDS011;27576;53.366;-1.498;2023-11-21T12:25:33;7.55;;;2.40;;
41897;SDS011;27576;53.366;-1.498;2023-11-21T12:28:00;10.88;;;2.20;;
41897;SDS011;27576;53.366;-1.498;2023-11-21T12:30:27;4.68;;;1.80;;
41897;SDS011;27576;53.366;-1.498;2023-11-21T12:32:55;5.43;;;2.28;;
41897;SDS011;27576;53.366;-1.498;2023-11-21T12:35:23;10.45;;;2.28;;
41897;SDS011;27576;53.366;-1.498;2023-11-21T12:37:51;6.03;;;1.70;;
41897;SDS011;27576;53.366;-1.498;2023-11-21T12:40:17;8.50;;;2.22;;
41897;SDS011;27576;53.366;-1.498;2023-11-21T12:42:48;2.53;;;1.40;;
41897;SDS011;27576;53.366;-1.498;2023-11-21T12:45:22;3.83;;;1.60;;
41897;SDS011;27576;53.366;-1.498;2023-11-21T12:47:51;3.97;;;1.40;;
41897;SDS011;27576;53.366;-1.498;2023-11-21T12:50:22;5.60;;;1.80;;
41897;SDS011;27576;53.366;-1.498;2023-11-21T12:53:01;8.25;;;1.80;;
41897;SDS011;27576;53.366;-1.498;2023-11-21T12:55:35;5.68;;;1.50;;
41897;SDS011;27576;53.366;-1.498;2023-11-21T12:58:04;7.05;;;1.83;;
41897;SDS011;27576;53.366;-1.498;2023-11-21T13:00:37;5.30;;;1.60;;
41897;SDS011;27576;53.366;-1.498;2023-11-21T13:03:11;6.10;;;1.90;;
41897;SDS011;27576;53.366;-1.498;2023-11-21T13:05:40;5.80;;;1.80;;
41897;SDS011;27576;53.366;-1.498;2023-11-21T13:08:10;5.07;;;1.85;;
41897;SDS011;27576;53.366;-1.498;2023-11-21T13:10:39;3.75;;;1.88;;
41897;SDS011;27576;53.366;-1.498;2023-11-21T13:13:07;6.80;;;2.55;;
41897;SDS011;27576;53.366;-1.498;2023-11-21T13:15:38;4.93;;;1.52;;
41897;SDS011;27576;53.366;-1.498;2023-11-21T13:18:05;6.22;;;2.08;;
41897;SDS011;27576;53.366;-1.498;2023-11-21T13:20:32;4.97;;;1.70;;
41897;SDS011;27576;53.366;-1.498;2023-11-21T13:22:57;7.30;;;2.10;;
41897;SDS011;27576;53.366;-1.498;2023-11-21T13:25:30;6.22;;;1.85;;
41897;SDS011;27576;53.366;-1.498;2023-11-21T13:27:59;6.43;;;2.30;;
41897;SDS011;27576;53.366;-1.498;2023-11-21T13:30:26;4.22;;;1.75;;
41897;SDS011;27576;53.366;-1.498;2023-11-21T13:32:52;3.42;;;1.75;;
41897;SDS011;27576;53.366;-1.498;2023-11-21T13:35:23;4.22;;;2.03;;
41897;SDS011;27576;53.366;-1.498;2023-11-21T13:38:09;4.68;;;1.45;;
41897;SDS011;27576;53.366;-1.498;2023-11-21T13:40:36;3.85;;;1.38;;
41897;SDS011;27576;53.366;-1.498;2023-11-21T13:43:11;2.75;;;1.35;;
41897;SDS011;27576;53.366;-1.498;2023-11-21T13:45:38;6.70;;;1.65;;
41897;SDS011;27576;53.366;-1.498;2023-11-21T13:48:05;8.50;;;2.17;;
41897;SDS011;27576;53.366;-1.498;2023-11-21T13:50:35;5.88;;;1.80;;
41897;SDS011;27576;53.366;-1.498;2023-11-21T13:53:01;6.07;;;1.70;;
41897;SDS011;27576;53.366;-1.498;2023-11-21T13:55:33;4.85;;;1.85;;
41897;SDS011;27576;53.366;-1.498;2023-11-21T13:58:00;5.32;;;2.40;;
41897;SDS011;27576;53.366;-1.498;2023-11-21T14:00:27;4.05;;;1.83;;
41897;SDS011;27576;53.366;-1.498;2023-11-21T14:03:06;5.63;;;2.00;;
41897;SDS011;27576;53.366;-1.498;2023-11-21T14:05:41;6.32;;;1.95;;
41897;SDS011;27576;53.366;-1.498;2023-11-21T14:08:08;7.88;;;3.05;;
41897;SDS011;27576;53.366;-1.498;2023-11-21T14:10:33;5.28;;;2.25;;
41897;SDS011;27576;53.366;-1.498;2023-11-21T14:13:15;4.13;;;1.80;;
41897;SDS011;27576;53.366;-1.498;2023-11-21T14:15:41;2.65;;;1.60;;
41897;SDS011;27576;53.366;-1.498;2023-11-21T14:18:10;3.90;;;1.75;;
41897;SDS011;27576;53.366;-1.498;2023-11-21T14:20:38;5.80;;;1.90;;
41897;SDS011;27576;53.366;-1.498;2023-11-21T14:23:05;5.45;;;2.10;;
41897;SDS011;27576;53.366;-1.498;2023-11-21T14:25:32;6.97;;;1.80;;
41897;SDS011;27576;53.366;-1.498;2023-11-21T14:27:58;4.03;;;2.10;;
41897;SDS011;27576;53.366;-1.498;2023-11-21T14:30:23;4.70;;;2.63;;
41897;SDS011;27576;53.366;-1.498;2023-11-21T14:32:49;5.65;;;2.40;;
41897;SDS011;27576;53.366;-1.498;2023-11-21T14:35:16;4.47;;;2.00;;
41897;SDS011;27576;53.366;-1.498;2023-11-21T14:37:42;6.85;;;1.50;;
41897;SDS011;27576;53.366;-1.498;2023-11-21T14:40:07;3.53;;;1.80;;
41897;SDS011;27576;53.366;-1.498;2023-11-21T14:42:33;5.30;;;2.00;;